sensor_id;sensor_type;location;lat;lon;timestamp;P1;durP1;ratioP1;P2;durP2;ratioP2
22282;SDS011;11310;51.528;21.204;2022-07-23T00:00:04;12.85;;;8.50;;
22282;SDS011;11310;51.528;21.204;2022-07-23T00:02:35;14.15;;;9.82;;
22282;SDS011;11310;51.528;21.204;2022-07-23T00:05:04;15.18;;;9.50;;
22282;SDS011;11310;51.528;21.204;2022-07-23T00:07:33;13.80;;;9.30;;
22282;SDS011;11310;51.528;21.204;2022-07-23T00:10:03;14.05;;;9.45;;
22282;SDS011;11310;51.528;21.204;2022-07-23T00:12:36;16.17;;;9.93;;
22282;SDS011;11310;51.528;21.204;2022-07-23T00:15:18;17.17;;;9.18;;
22282;SDS011;11310;51.528;21.204;2022-07-23T00:17:47;15.07;;;9.20;;
22282;SDS011;11310;51.528;21.204;2022-07-23T00:20:17;14.60;;;10.07;;
22282;SDS011;11310;51.528;21.204;2022-07-23T00:22:46;13.73;;;10.20;;
22282;SDS011;11310;51.528;21.204;2022-07-23T00:25:16;16.92;;;9.70;;
22282;SDS011;11310;51.528;21.204;2022-07-23T00:28:00;13.98;;;9.48;;
22282;SDS011;11310;51.528;21.204;2022-07-23T00:30:31;16.17;;;10.25;;
22282;SDS011;11310;51.528;21.204;2022-07-23T00:33:01;15.00;;;9.80;;
22282;SDS011;11310;51.528;21.204;2022-07-23T00:35:33;14.57;;;9.02;;
22282;SDS011;11310;51.528;21.204;2022-07-23T00:38:03;13.05;;;9.20;;
22282;SDS011;11310;51.528;21.204;2022-07-23T00:40:33;16.50;;;9.80;;
22282;SDS011;11310;51.528;21.204;2022-07-23T00:43:02;17.45;;;9.75;;
22282;SDS011;11310;51.528;21.204;2022-07-23T00:45:33;15.30;;;10.10;;
22282;SDS011;11310;51.528;21.204;2022-07-23T00:48:02;18.35;;;10.18;;
22282;SDS011;11310;51.528;21.204;2022-07-23T00:50:31;21.92;;;9.80;;
22282;SDS011;11310;51.528;21.204;2022-07-23T00:53:00;18.45;;;10.30;;
22282;SDS011;11310;51.528;21.204;2022-07-23T00:55:29;15.52;;;10.85;;
22282;SDS011;11310;51.528;21.204;2022-07-23T00:57:58;15.60;;;10.32;;
22282;SDS011;11310;51.528;21.204;2022-07-23T01:00:29;16.13;;;9.73;;
22282;SDS011;11310;51.528;21.204;2022-07-23T01:03:00;17.08;;;10.27;;
22282;SDS011;11310;51.528;21.204;2022-07-23T01:05:28;19.30;;;10.18;;
22282;SDS011;11310;51.528;21.204;2022-07-23T01:07:58;14.73;;;8.85;;
22282;SDS011;11310;51.528;21.204;2022-07-23T01:10:28;16.38;;;10.65;;
22282;SDS011;11310;51.528;21.204;2022-07-23T01:13:02;15.38;;;10.18;;
22282;SDS011;11310;51.528;21.204;2022-07-23T01:15:33;16.88;;;10.02;;
22282;SDS011;11310;51.528;21.204;2022-07-23T01:18:05;16.30;;;10.33;;
22282;SDS011;11310;51.528;21.204;2022-07-23T01:20:36;16.00;;;10.38;;
22282;SDS011;11310;51.528;21.204;2022-07-23T01:23:08;17.33;;;10.20;;
22282;SDS011;11310;51.528;21.204;2022-07-23T01:25:47;18.42;;;9.73;;
22282;SDS011;11310;51.528;21.204;2022-07-23T01:28:17;17.33;;;9.85;;
22282;SDS011;11310;51.528;21.204;2022-07-23T01:30:46;13.35;;;9.23;;
22282;SDS011;11310;51.528;21.204;2022-07-23T01:33:15;13.75;;;9.45;;
22282;SDS011;11310;51.528;21.204;2022-07-23T01:35:44;17.33;;;9.25;;
22282;SDS011;11310;51.528;21.204;2022-07-23T01:38:20;14.48;;;9.18;;
22282;SDS011;11310;51.528;21.204;2022-07-23T01:40:49;15.95;;;9.68;;
22282;SDS011;11310;51.528;21.204;2022-07-23T01:43:24;15.20;;;9.27;;
22282;SDS011;11310;51.528;21.204;2022-07-23T01:45:54;13.98;;;9.45;;
22282;SDS011;11310;51.528;21.204;2022-07-23T01:48:26;14.52;;;10.05;;
22282;SDS011;11310;51.528;21.204;2022-07-23T01:51:21;16.67;;;9.60;;
22282;SDS011;11310;51.528;21.204;2022-07-23T01:53:58;18.48;;;10.63;;
22282;SDS011;11310;51.528;21.204;2022-07-23T01:56:27;16.20;;;9.73;;
22282;SDS011;11310;51.528;21.204;2022-07-23T01:58:56;16.00;;;10.15;;
22282;SDS011;11310;51.528;21.204;2022-07-23T02:01:25;15.18;;;10.30;;
22282;SDS011;11310;51.528;21.204;2022-07-23T02:03:54;18.27;;;9.75;;
22282;SDS011;11310;51.528;21.204;2022-07-23T02:06:23;16.35;;;10.23;;
22282;SDS011;11310;51.528;21.204;2022-07-23T02:08:53;17.55;;;10.70;;
22282;SDS011;11310;51.528;21.204;2022-07-23T02:11:24;16.15;;;10.63;;
22282;SDS011;11310;51.528;21.204;2022-07-23T02:13:53;14.57;;;10.10;;
22282;SDS011;11310;51.528;21.204;2022-07-23T02:16:25;15.18;;;10.55;;
22282;SDS011;11310;51.528;21.204;2022-07-23T02:18:59;15.48;;;10.43;;
22282;SDS011;11310;51.528;21.204;2022-07-23T02:21:29;18.45;;;11.23;;
22282;SDS011;11310;51.528;21.204;2022-07-23T02:24:30;15.75;;;9.88;;
22282;SDS011;11310;51.528;21.204;2022-07-23T02:27:00;18.80;;;10.55;;
22282;SDS011;11310;51.528;21.204;2022-07-23T02:29:33;17.08;;;10.27;;
22282;SDS011;11310;51.528;21.204;2022-07-23T02:32:02;18.98;;;10.18;;
22282;SDS011;11310;51.528;21.204;2022-07-23T02:34:33;15.52;;;9.68;;
22282;SDS011;11310;51.528;21.204;2022-07-23T02:37:02;22.55;;;11.02;;
22282;SDS011;11310;51.528;21.204;2022-07-23T02:39:33;18.02;;;11.70;;
22282;SDS011;11310;51.528;21.204;2022-07-23T02:42:03;18.27;;;10.68;;
22282;SDS011;11310;51.528;21.204;2022-07-23T02:44:34;20.08;;;11.93;;
22282;SDS011;11310;51.528;21.204;2022-07-23T02:47:03;15.18;;;10.15;;
22282;SDS011;11310;51.528;21.204;2022-07-23T02:49:33;15.10;;;10.73;;
22282;SDS011;11310;51.528;21.204;2022-07-23T02:52:04;17.83;;;11.30;;
22282;SDS011;11310;51.528;21.204;2022-07-23T02:54:33;19.08;;;10.52;;
22282;SDS011;11310;51.528;21.204;2022-07-23T02:57:04;20.25;;;11.00;;
22282;SDS011;11310;51.528;21.204;2022-07-23T02:59:33;16.67;;;10.55;;
22282;SDS011;11310;51.528;21.204;2022-07-23T03:02:07;16.50;;;10.40;;
22282;SDS011;11310;51.528;21.204;2022-07-23T03:04:37;18.35;;;10.88;;
22282;SDS011;11310;51.528;21.204;2022-07-23T03:07:10;16.52;;;9.88;;
22282;SDS011;11310;51.528;21.204;2022-07-23T03:09:39;17.40;;;10.50;;
22282;SDS011;11310;51.528;21.204;2022-07-23T03:12:10;16.52;;;10.50;;
22282;SDS011;11310;51.528;21.204;2022-07-23T03:14:41;15.32;;;10.77;;
22282;SDS011;11310;51.528;21.204;2022-07-23T03:17:10;19.15;;;11.43;;
22282;SDS011;11310;51.528;21.204;2022-07-23T03:19:42;17.25;;;10.75;;
22282;SDS011;11310;51.528;21.204;2022-07-23T03:22:12;19.13;;;10.77;;
22282;SDS011;11310;51.528;21.204;2022-07-23T03:24:40;24.92;;;10.88;;
22282;SDS011;11310;51.528;21.204;2022-07-23T03:27:26;16.95;;;10.40;;
22282;SDS011;11310;51.528;21.204;2022-07-23T03:29:57;14.82;;;10.05;;
22282;SDS011;11310;51.528;21.204;2022-07-23T03:32:27;16.02;;;10.63;;
22282;SDS011;11310;51.528;21.204;2022-07-23T03:34:56;16.60;;;10.55;;
22282;SDS011;11310;51.528;21.204;2022-07-23T03:37:26;18.38;;;11.10;;
22282;SDS011;11310;51.528;21.204;2022-07-23T03:39:57;17.15;;;9.80;;
22282;SDS011;11310;51.528;21.204;2022-07-23T03:42:30;13.93;;;9.87;;
22282;SDS011;11310;51.528;21.204;2022-07-23T03:44:59;13.52;;;9.27;;
22282;SDS011;11310;51.528;21.204;2022-07-23T03:47:28;15.18;;;9.95;;
22282;SDS011;11310;51.528;21.204;2022-07-23T03:49:58;16.48;;;10.23;;
22282;SDS011;11310;51.528;21.204;2022-07-23T03:52:27;16.67;;;10.57;;
22282;SDS011;11310;51.528;21.204;2022-07-23T03:54:56;19.05;;;10.50;;
22282;SDS011;11310;51.528;21.204;2022-07-23T03:57:26;18.85;;;10.32;;
22282;SDS011;11310;51.528;21.204;2022-07-23T03:59:57;16.25;;;10.65;;
22282;SDS011;11310;51.528;21.204;2022-07-23T04:02:26;18.10;;;10.40;;
22282;SDS011;11310;51.528;21.204;2022-07-23T04:04:57;16.90;;;10.65;;
22282;SDS011;11310;51.528;21.204;2022-07-23T04:07:26;15.57;;;10.32;;
22282;SDS011;11310;51.528;21.204;2022-07-23T04:09:55;20.08;;;10.20;;
22282;SDS011;11310;51.528;21.204;2022-07-23T04:12:27;16.90;;;10.52;;
22282;SDS011;11310;51.528;21.204;2022-07-23T04:14:57;19.13;;;9.40;;
22282;SDS011;11310;51.528;21.204;2022-07-23T04:17:27;18.53;;;9.90;;
22282;SDS011;11310;51.528;21.204;2022-07-23T04:19:56;15.50;;;10.85;;
22282;SDS011;11310;51.528;21.204;2022-07-23T04:22:30;19.63;;;10.90;;
22282;SDS011;11310;51.528;21.204;2022-07-23T04:24:59;16.98;;;10.60;;
22282;SDS011;11310;51.528;21.204;2022-07-23T04:27:28;19.70;;;10.40;;
22282;SDS011;11310;51.528;21.204;2022-07-23T04:29:59;18.00;;;9.85;;
22282;SDS011;11310;51.528;21.204;2022-07-23T04:32:29;15.03;;;9.63;;
22282;SDS011;11310;51.528;21.204;2022-07-23T04:35:00;15.60;;;9.27;;
22282;SDS011;11310;51.528;21.204;2022-07-23T04:37:29;14.20;;;9.52;;
22282;SDS011;11310;51.528;21.204;2022-07-23T04:39:58;14.73;;;9.07;;
22282;SDS011;11310;51.528;21.204;2022-07-23T04:42:27;15.70;;;9.85;;
22282;SDS011;11310;51.528;21.204;2022-07-23T04:44:56;14.10;;;9.15;;
22282;SDS011;11310;51.528;21.204;2022-07-23T04:47:27;16.33;;;10.25;;
22282;SDS011;11310;51.528;21.204;2022-07-23T04:49:58;14.35;;;9.80;;
22282;SDS011;11310;51.528;21.204;2022-07-23T04:52:28;16.55;;;9.75;;
22282;SDS011;11310;51.528;21.204;2022-07-23T04:54:57;15.45;;;10.02;;
22282;SDS011;11310;51.528;21.204;2022-07-23T04:57:28;15.65;;;9.50;;
22282;SDS011;11310;51.528;21.204;2022-07-23T04:59:57;14.82;;;9.23;;
22282;SDS011;11310;51.528;21.204;2022-07-23T05:02:28;16.52;;;9.68;;
22282;SDS011;11310;51.528;21.204;2022-07-23T05:04:57;14.85;;;9.00;;
22282;SDS011;11310;51.528;21.204;2022-07-23T05:07:27;16.02;;;9.90;;
22282;SDS011;11310;51.528;21.204;2022-07-23T05:09:56;13.80;;;9.50;;
22282;SDS011;11310;51.528;21.204;2022-07-23T05:12:25;14.30;;;8.73;;
22282;SDS011;11310;51.528;21.204;2022-07-23T05:14:55;15.68;;;9.95;;
22282;SDS011;11310;51.528;21.204;2022-07-23T05:17:24;17.85;;;10.00;;
22282;SDS011;11310;51.528;21.204;2022-07-23T05:19:55;17.83;;;10.32;;
22282;SDS011;11310;51.528;21.204;2022-07-23T05:22:28;22.90;;;13.20;;
22282;SDS011;11310;51.528;21.204;2022-07-23T05:25:00;26.48;;;13.68;;
22282;SDS011;11310;51.528;21.204;2022-07-23T05:27:29;29.20;;;14.88;;
22282;SDS011;11310;51.528;21.204;2022-07-23T05:29:59;39.90;;;19.35;;
22282;SDS011;11310;51.528;21.204;2022-07-23T05:32:31;40.15;;;18.88;;
22282;SDS011;11310;51.528;21.204;2022-07-23T05:35:22;42.70;;;19.67;;
22282;SDS011;11310;51.528;21.204;2022-07-23T05:38:07;36.75;;;18.55;;
22282;SDS011;11310;51.528;21.204;2022-07-23T05:40:35;34.20;;;17.23;;
22282;SDS011;11310;51.528;21.204;2022-07-23T05:43:05;30.30;;;15.88;;
22282;SDS011;11310;51.528;21.204;2022-07-23T05:45:34;23.48;;;14.80;;
22282;SDS011;11310;51.528;21.204;2022-07-23T05:48:04;26.60;;;13.40;;
22282;SDS011;11310;51.528;21.204;2022-07-23T05:50:43;20.83;;;12.18;;
22282;SDS011;11310;51.528;21.204;2022-07-23T05:53:23;17.15;;;9.98;;
22282;SDS011;11310;51.528;21.204;2022-07-23T05:56:12;18.20;;;9.70;;
22282;SDS011;11310;51.528;21.204;2022-07-23T05:58:44;15.68;;;9.60;;
22282;SDS011;11310;51.528;21.204;2022-07-23T06:01:15;18.63;;;9.23;;
22282;SDS011;11310;51.528;21.204;2022-07-23T06:03:55;16.52;;;10.10;;
22282;SDS011;11310;51.528;21.204;2022-07-23T06:06:33;16.00;;;8.45;;
22282;SDS011;11310;51.528;21.204;2022-07-23T06:09:02;14.02;;;8.60;;
22282;SDS011;11310;51.528;21.204;2022-07-23T06:11:32;12.88;;;8.38;;
22282;SDS011;11310;51.528;21.204;2022-07-23T06:14:01;18.20;;;9.00;;
22282;SDS011;11310;51.528;21.204;2022-07-23T06:16:48;11.55;;;8.20;;
22282;SDS011;11310;51.528;21.204;2022-07-23T06:19:17;15.38;;;9.07;;
22282;SDS011;11310;51.528;21.204;2022-07-23T06:21:47;11.73;;;8.00;;
22282;SDS011;11310;51.528;21.204;2022-07-23T06:24:16;12.55;;;8.43;;
22282;SDS011;11310;51.528;21.204;2022-07-23T06:26:46;11.63;;;7.35;;
22282;SDS011;11310;51.528;21.204;2022-07-23T06:29:15;14.05;;;8.13;;
22282;SDS011;11310;51.528;21.204;2022-07-23T06:31:44;16.02;;;8.30;;
22282;SDS011;11310;51.528;21.204;2022-07-23T06:34:14;13.52;;;7.90;;
22282;SDS011;11310;51.528;21.204;2022-07-23T06:36:43;15.65;;;8.30;;
22282;SDS011;11310;51.528;21.204;2022-07-23T06:39:14;14.82;;;7.88;;
22282;SDS011;11310;51.528;21.204;2022-07-23T06:41:48;13.73;;;8.45;;
22282;SDS011;11310;51.528;21.204;2022-07-23T06:44:25;12.32;;;7.35;;
22282;SDS011;11310;51.528;21.204;2022-07-23T06:46:54;12.57;;;7.47;;
22282;SDS011;11310;51.528;21.204;2022-07-23T06:49:23;12.18;;;7.68;;
22282;SDS011;11310;51.528;21.204;2022-07-23T06:51:53;12.77;;;7.85;;
22282;SDS011;11310;51.528;21.204;2022-07-23T06:54:23;12.45;;;8.00;;
22282;SDS011;11310;51.528;21.204;2022-07-23T06:56:52;11.05;;;7.65;;
22282;SDS011;11310;51.528;21.204;2022-07-23T06:59:21;12.38;;;7.10;;
22282;SDS011;11310;51.528;21.204;2022-07-23T07:01:50;11.35;;;7.20;;
22282;SDS011;11310;51.528;21.204;2022-07-23T07:04:19;12.70;;;7.13;;
22282;SDS011;11310;51.528;21.204;2022-07-23T07:06:48;10.50;;;6.65;;
22282;SDS011;11310;51.528;21.204;2022-07-23T07:09:17;12.82;;;7.63;;
22282;SDS011;11310;51.528;21.204;2022-07-23T07:11:48;12.25;;;7.05;;
22282;SDS011;11310;51.528;21.204;2022-07-23T07:14:16;12.45;;;7.13;;
22282;SDS011;11310;51.528;21.204;2022-07-23T07:16:45;14.13;;;7.38;;
22282;SDS011;11310;51.528;21.204;2022-07-23T07:19:15;12.27;;;6.57;;
22282;SDS011;11310;51.528;21.204;2022-07-23T07:21:44;10.05;;;6.53;;
22282;SDS011;11310;51.528;21.204;2022-07-23T07:24:13;10.63;;;6.95;;
22282;SDS011;11310;51.528;21.204;2022-07-23T07:26:42;10.57;;;6.75;;
22282;SDS011;11310;51.528;21.204;2022-07-23T07:29:12;12.13;;;7.20;;
22282;SDS011;11310;51.528;21.204;2022-07-23T07:31:41;11.50;;;7.05;;
22282;SDS011;11310;51.528;21.204;2022-07-23T07:34:11;12.73;;;7.05;;
22282;SDS011;11310;51.528;21.204;2022-07-23T07:36:43;12.38;;;7.18;;
22282;SDS011;11310;51.528;21.204;2022-07-23T07:39:12;11.07;;;6.60;;
22282;SDS011;11310;51.528;21.204;2022-07-23T07:41:41;11.45;;;7.15;;
22282;SDS011;11310;51.528;21.204;2022-07-23T07:44:12;11.13;;;6.90;;
22282;SDS011;11310;51.528;21.204;2022-07-23T07:46:42;13.43;;;7.00;;
22282;SDS011;11310;51.528;21.204;2022-07-23T07:49:11;13.05;;;6.20;;
22282;SDS011;11310;51.528;21.204;2022-07-23T07:51:42;11.23;;;7.15;;
22282;SDS011;11310;51.528;21.204;2022-07-23T07:54:13;8.63;;;6.13;;
22282;SDS011;11310;51.528;21.204;2022-07-23T07:56:42;10.15;;;5.70;;
22282;SDS011;11310;51.528;21.204;2022-07-23T07:59:12;15.00;;;6.65;;
22282;SDS011;11310;51.528;21.204;2022-07-23T08:01:42;9.93;;;5.70;;
22282;SDS011;11310;51.528;21.204;2022-07-23T08:04:11;10.65;;;6.32;;
22282;SDS011;11310;51.528;21.204;2022-07-23T08:06:40;11.15;;;5.72;;
22282;SDS011;11310;51.528;21.204;2022-07-23T08:09:09;11.40;;;5.88;;
22282;SDS011;11310;51.528;21.204;2022-07-23T08:11:38;11.43;;;5.35;;
22282;SDS011;11310;51.528;21.204;2022-07-23T08:14:07;11.45;;;5.88;;
22282;SDS011;11310;51.528;21.204;2022-07-23T08:16:38;11.75;;;6.10;;
22282;SDS011;11310;51.528;21.204;2022-07-23T08:19:27;16.65;;;7.28;;
22282;SDS011;11310;51.528;21.204;2022-07-23T08:21:55;8.45;;;5.47;;
22282;SDS011;11310;51.528;21.204;2022-07-23T08:24:24;10.20;;;5.85;;
22282;SDS011;11310;51.528;21.204;2022-07-23T08:26:53;10.13;;;5.68;;
22282;SDS011;11310;51.528;21.204;2022-07-23T08:29:22;13.63;;;5.90;;
22282;SDS011;11310;51.528;21.204;2022-07-23T08:31:54;8.63;;;5.63;;
22282;SDS011;11310;51.528;21.204;2022-07-23T08:34:25;9.52;;;5.43;;
22282;SDS011;11310;51.528;21.204;2022-07-23T08:36:54;10.02;;;5.20;;
22282;SDS011;11310;51.528;21.204;2022-07-23T08:39:23;8.85;;;5.22;;
22282;SDS011;11310;51.528;21.204;2022-07-23T08:41:51;12.43;;;6.93;;
22282;SDS011;11310;51.528;21.204;2022-07-23T08:44:20;9.35;;;5.38;;
22282;SDS011;11310;51.528;21.204;2022-07-23T08:46:50;9.20;;;5.60;;
22282;SDS011;11310;51.528;21.204;2022-07-23T08:49:20;9.77;;;4.68;;
22282;SDS011;11310;51.528;21.204;2022-07-23T08:51:51;8.20;;;5.30;;
22282;SDS011;11310;51.528;21.204;2022-07-23T08:54:21;7.70;;;4.57;;
22282;SDS011;11310;51.528;21.204;2022-07-23T08:56:50;31.05;;;6.55;;
22282;SDS011;11310;51.528;21.204;2022-07-23T08:59:18;9.48;;;5.40;;
22282;SDS011;11310;51.528;21.204;2022-07-23T09:01:48;8.57;;;5.05;;
22282;SDS011;11310;51.528;21.204;2022-07-23T09:04:17;7.50;;;4.93;;
22282;SDS011;11310;51.528;21.204;2022-07-23T09:06:54;7.65;;;4.70;;
22282;SDS011;11310;51.528;21.204;2022-07-23T09:09:23;8.93;;;4.75;;
22282;SDS011;11310;51.528;21.204;2022-07-23T09:12:03;10.23;;;4.75;;
22282;SDS011;11310;51.528;21.204;2022-07-23T09:14:36;8.95;;;4.70;;
22282;SDS011;11310;51.528;21.204;2022-07-23T09:17:10;12.88;;;5.50;;
22282;SDS011;11310;51.528;21.204;2022-07-23T09:19:40;8.60;;;4.78;;
22282;SDS011;11310;51.528;21.204;2022-07-23T09:22:18;9.43;;;4.88;;
22282;SDS011;11310;51.528;21.204;2022-07-23T09:25:03;9.88;;;5.53;;
22282;SDS011;11310;51.528;21.204;2022-07-23T09:27:48;9.02;;;5.82;;
22282;SDS011;11310;51.528;21.204;2022-07-23T09:30:22;6.90;;;4.80;;
22282;SDS011;11310;51.528;21.204;2022-07-23T09:33:04;10.40;;;5.38;;
22282;SDS011;11310;51.528;21.204;2022-07-23T09:35:43;10.77;;;5.38;;
22282;SDS011;11310;51.528;21.204;2022-07-23T09:38:15;9.02;;;5.00;;
22282;SDS011;11310;51.528;21.204;2022-07-23T09:40:44;7.63;;;4.63;;
22282;SDS011;11310;51.528;21.204;2022-07-23T09:43:14;9.55;;;5.38;;
22282;SDS011;11310;51.528;21.204;2022-07-23T09:46:21;8.80;;;5.38;;
22282;SDS011;11310;51.528;21.204;2022-07-23T09:48:51;9.75;;;5.20;;
22282;SDS011;11310;51.528;21.204;2022-07-23T09:51:21;7.07;;;4.80;;
22282;SDS011;11310;51.528;21.204;2022-07-23T09:53:55;9.70;;;4.75;;
22282;SDS011;11310;51.528;21.204;2022-07-23T09:56:25;10.60;;;6.35;;
22282;SDS011;11310;51.528;21.204;2022-07-23T09:58:55;8.03;;;4.43;;
22282;SDS011;11310;51.528;21.204;2022-07-23T10:01:31;8.68;;;5.15;;
22282;SDS011;11310;51.528;21.204;2022-07-23T10:04:01;9.90;;;5.45;;
22282;SDS011;11310;51.528;21.204;2022-07-23T10:07:01;8.60;;;5.00;;
22282;SDS011;11310;51.528;21.204;2022-07-23T10:09:52;9.23;;;5.05;;
22282;SDS011;11310;51.528;21.204;2022-07-23T10:12:28;10.77;;;5.10;;
22282;SDS011;11310;51.528;21.204;2022-07-23T10:15:12;12.63;;;5.32;;
22282;SDS011;11310;51.528;21.204;2022-07-23T10:17:41;10.10;;;5.32;;
22282;SDS011;11310;51.528;21.204;2022-07-23T10:20:11;8.23;;;4.93;;
22282;SDS011;11310;51.528;21.204;2022-07-23T10:22:42;7.95;;;4.90;;
22282;SDS011;11310;51.528;21.204;2022-07-23T10:25:18;6.50;;;4.40;;
22282;SDS011;11310;51.528;21.204;2022-07-23T10:28:04;8.23;;;4.57;;
22282;SDS011;11310;51.528;21.204;2022-07-23T10:30:45;14.90;;;4.82;;
22282;SDS011;11310;51.528;21.204;2022-07-23T10:33:23;8.82;;;5.00;;
22282;SDS011;11310;51.528;21.204;2022-07-23T10:36:00;11.07;;;5.30;;
22282;SDS011;11310;51.528;21.204;2022-07-23T10:38:32;8.73;;;4.97;;
22282;SDS011;11310;51.528;21.204;2022-07-23T10:41:12;8.48;;;5.03;;
22282;SDS011;11310;51.528;21.204;2022-07-23T10:43:41;8.55;;;4.65;;
22282;SDS011;11310;51.528;21.204;2022-07-23T10:46:23;6.22;;;4.03;;
22282;SDS011;11310;51.528;21.204;2022-07-23T10:54:55;10.90;;;5.15;;
22282;SDS011;11310;51.528;21.204;2022-07-23T10:57:49;9.18;;;4.47;;
22282;SDS011;11310;51.528;21.204;2022-07-23T11:00:22;10.93;;;5.07;;
22282;SDS011;11310;51.528;21.204;2022-07-23T11:02:53;7.85;;;4.53;;
22282;SDS011;11310;51.528;21.204;2022-07-23T11:05:24;9.25;;;5.25;;
22282;SDS011;11310;51.528;21.204;2022-07-23T11:08:13;9.43;;;4.35;;
22282;SDS011;11310;51.528;21.204;2022-07-23T11:10:48;25.30;;;6.07;;
22282;SDS011;11310;51.528;21.204;2022-07-23T11:13:27;10.70;;;4.57;;
22282;SDS011;11310;51.528;21.204;2022-07-23T11:19:05;9.15;;;4.65;;
22282;SDS011;11310;51.528;21.204;2022-07-23T11:21:45;8.05;;;4.60;;
22282;SDS011;11310;51.528;21.204;2022-07-23T11:24:19;8.25;;;4.05;;
22282;SDS011;11310;51.528;21.204;2022-07-23T11:26:51;7.53;;;4.30;;
22282;SDS011;11310;51.528;21.204;2022-07-23T11:29:39;7.40;;;4.00;;
22282;SDS011;11310;51.528;21.204;2022-07-23T11:32:22;7.05;;;4.25;;
22282;SDS011;11310;51.528;21.204;2022-07-23T11:35:19;9.80;;;4.38;;
22282;SDS011;11310;51.528;21.204;2022-07-23T11:37:54;6.75;;;3.78;;
22282;SDS011;11310;51.528;21.204;2022-07-23T11:40:32;7.15;;;4.10;;
22282;SDS011;11310;51.528;21.204;2022-07-23T11:43:02;7.95;;;4.03;;
22282;SDS011;11310;51.528;21.204;2022-07-23T11:45:33;6.18;;;3.63;;
22282;SDS011;11310;51.528;21.204;2022-07-23T11:48:04;8.63;;;4.43;;
22282;SDS011;11310;51.528;21.204;2022-07-23T11:50:35;8.27;;;4.30;;
22282;SDS011;11310;51.528;21.204;2022-07-23T11:53:04;11.05;;;4.13;;
22282;SDS011;11310;51.528;21.204;2022-07-23T11:55:33;7.20;;;3.70;;
22282;SDS011;11310;51.528;21.204;2022-07-23T11:58:02;9.02;;;4.20;;
22282;SDS011;11310;51.528;21.204;2022-07-23T12:00:32;7.40;;;4.38;;
22282;SDS011;11310;51.528;21.204;2022-07-23T12:03:06;7.15;;;4.05;;
22282;SDS011;11310;51.528;21.204;2022-07-23T12:05:36;9.60;;;5.03;;
22282;SDS011;11310;51.528;21.204;2022-07-23T12:08:07;6.20;;;3.97;;
22282;SDS011;11310;51.528;21.204;2022-07-23T12:10:38;9.13;;;4.60;;
22282;SDS011;11310;51.528;21.204;2022-07-23T12:13:10;8.50;;;4.75;;
22282;SDS011;11310;51.528;21.204;2022-07-23T12:15:42;53.92;;;7.35;;
22282;SDS011;11310;51.528;21.204;2022-07-23T12:18:13;10.25;;;4.65;;
22282;SDS011;11310;51.528;21.204;2022-07-23T12:20:44;8.32;;;4.47;;
22282;SDS011;11310;51.528;21.204;2022-07-23T12:23:17;6.18;;;3.88;;
22282;SDS011;11310;51.528;21.204;2022-07-23T12:25:48;10.30;;;4.40;;
22282;SDS011;11310;51.528;21.204;2022-07-23T12:28:19;9.60;;;4.55;;
22282;SDS011;11310;51.528;21.204;2022-07-23T12:30:52;11.05;;;4.30;;
22282;SDS011;11310;51.528;21.204;2022-07-23T12:33:22;7.88;;;4.43;;
22282;SDS011;11310;51.528;21.204;2022-07-23T12:35:54;5.78;;;3.75;;
22282;SDS011;11310;51.528;21.204;2022-07-23T12:38:26;9.02;;;3.65;;
22282;SDS011;11310;51.528;21.204;2022-07-23T12:40:57;6.80;;;4.15;;
22282;SDS011;11310;51.528;21.204;2022-07-23T12:43:28;6.18;;;3.90;;
22282;SDS011;11310;51.528;21.204;2022-07-23T12:46:03;7.78;;;4.00;;
22282;SDS011;11310;51.528;21.204;2022-07-23T12:48:34;7.65;;;4.20;;
22282;SDS011;11310;51.528;21.204;2022-07-23T12:51:04;6.65;;;3.72;;
22282;SDS011;11310;51.528;21.204;2022-07-23T12:53:36;9.75;;;4.78;;
22282;SDS011;11310;51.528;21.204;2022-07-23T12:56:08;7.55;;;3.88;;
22282;SDS011;11310;51.528;21.204;2022-07-23T12:58:43;7.05;;;4.05;;
22282;SDS011;11310;51.528;21.204;2022-07-23T13:01:26;13.15;;;4.43;;
22282;SDS011;11310;51.528;21.204;2022-07-23T13:04:01;6.97;;;4.00;;
22282;SDS011;11310;51.528;21.204;2022-07-23T13:06:40;6.72;;;4.32;;
22282;SDS011;11310;51.528;21.204;2022-07-23T13:09:12;5.97;;;3.58;;
22282;SDS011;11310;51.528;21.204;2022-07-23T13:11:43;7.85;;;3.67;;
22282;SDS011;11310;51.528;21.204;2022-07-23T13:14:14;6.72;;;3.85;;
22282;SDS011;11310;51.528;21.204;2022-07-23T13:16:49;7.20;;;3.80;;
22282;SDS011;11310;51.528;21.204;2022-07-23T13:19:19;7.55;;;4.30;;
22282;SDS011;11310;51.528;21.204;2022-07-23T13:21:52;8.10;;;4.22;;
22282;SDS011;11310;51.528;21.204;2022-07-23T13:24:21;7.30;;;4.10;;
22282;SDS011;11310;51.528;21.204;2022-07-23T13:26:50;12.77;;;4.63;;
22282;SDS011;11310;51.528;21.204;2022-07-23T13:29:19;7.45;;;4.38;;
22282;SDS011;11310;51.528;21.204;2022-07-23T13:31:50;5.60;;;3.75;;
22282;SDS011;11310;51.528;21.204;2022-07-23T13:34:19;6.97;;;4.00;;
22282;SDS011;11310;51.528;21.204;2022-07-23T13:36:49;7.53;;;4.30;;
22282;SDS011;11310;51.528;21.204;2022-07-23T13:39:18;9.43;;;4.10;;
22282;SDS011;11310;51.528;21.204;2022-07-23T13:41:47;7.10;;;4.43;;
22282;SDS011;11310;51.528;21.204;2022-07-23T13:44:16;6.25;;;3.67;;
22282;SDS011;11310;51.528;21.204;2022-07-23T13:46:48;6.43;;;3.78;;
22282;SDS011;11310;51.528;21.204;2022-07-23T13:49:19;6.97;;;4.20;;
22282;SDS011;11310;51.528;21.204;2022-07-23T13:51:48;9.18;;;3.92;;
22282;SDS011;11310;51.528;21.204;2022-07-23T13:54:18;10.77;;;4.00;;
22282;SDS011;11310;51.528;21.204;2022-07-23T13:56:48;6.88;;;4.00;;
22282;SDS011;11310;51.528;21.204;2022-07-23T13:59:17;7.32;;;4.43;;
22282;SDS011;11310;51.528;21.204;2022-07-23T14:01:46;5.88;;;4.03;;
22282;SDS011;11310;51.528;21.204;2022-07-23T14:04:36;5.50;;;3.65;;
22282;SDS011;11310;51.528;21.204;2022-07-23T14:07:08;8.35;;;4.05;;
22282;SDS011;11310;51.528;21.204;2022-07-23T14:09:37;7.55;;;3.92;;
22282;SDS011;11310;51.528;21.204;2022-07-23T14:12:07;5.90;;;3.83;;
22282;SDS011;11310;51.528;21.204;2022-07-23T14:14:37;8.75;;;4.13;;
22282;SDS011;11310;51.528;21.204;2022-07-23T14:17:07;7.47;;;3.75;;
22282;SDS011;11310;51.528;21.204;2022-07-23T14:19:38;6.35;;;3.90;;
22282;SDS011;11310;51.528;21.204;2022-07-23T14:22:08;6.00;;;3.75;;
22282;SDS011;11310;51.528;21.204;2022-07-23T14:24:39;21.20;;;4.27;;
22282;SDS011;11310;51.528;21.204;2022-07-23T14:27:08;10.18;;;4.18;;
22282;SDS011;11310;51.528;21.204;2022-07-23T14:29:37;7.50;;;4.13;;
22282;SDS011;11310;51.528;21.204;2022-07-23T14:32:06;9.60;;;3.88;;
22282;SDS011;11310;51.528;21.204;2022-07-23T14:34:35;6.00;;;3.60;;
22282;SDS011;11310;51.528;21.204;2022-07-23T14:37:06;7.38;;;3.60;;
22282;SDS011;11310;51.528;21.204;2022-07-23T14:39:40;9.40;;;3.78;;
22282;SDS011;11310;51.528;21.204;2022-07-23T14:44:41;8.60;;;3.92;;
22282;SDS011;11310;51.528;21.204;2022-07-23T14:47:12;6.43;;;3.65;;
22282;SDS011;11310;51.528;21.204;2022-07-23T14:49:47;6.10;;;3.90;;
22282;SDS011;11310;51.528;21.204;2022-07-23T14:52:18;15.82;;;3.78;;
22282;SDS011;11310;51.528;21.204;2022-07-23T14:54:47;10.35;;;4.15;;
22282;SDS011;11310;51.528;21.204;2022-07-23T14:57:16;6.97;;;4.20;;
22282;SDS011;11310;51.528;21.204;2022-07-23T14:59:52;23.90;;;5.93;;
22282;SDS011;11310;51.528;21.204;2022-07-23T15:02:22;29.70;;;5.82;;